• Join FlightAware (Why Join?)
  • Login
  • US Flag 
03:01PM EDT


 

Airport Tracker/Info


-or-


 

Live Flight TrackerFlight Track Log ✈ SWA265 ✈ 23-Apr-2013 ✈ KLAS - KBWI

Flight Track Log - Related Links

Times and Time Zones

All times are in EDT time to prevent confusion due to time zone crossing. See the SWA265 flight status page for this flight to view local times or setup timezone preferences in your user account.

Time Position Orientation Groundspeed Altitude Reporting Facility
EDT Latitude Longitude Course Direction KTS MPH feet Rate Location/Type
10:41AM 36.0742 -115.0703 95° East 200 230 4,200  Level Los Angeles Center
10:42AM 36.0775 -115.0094 86° East 215 247 5,300 2,760 Climbing Los Angeles Center
10:43AM 36.0803 -114.9147 88° East 269 310 9,200 2,220 Climbing Los Angeles Center
10:44AM 36.0986 -114.8089 78° East 318 366 10,000 1,980 Climbing Los Angeles Center
10:45AM 36.1197 -114.6861 78° East 364 419 13,300 3,240 Climbing Los Angeles Center
10:46AM 36.1411 -114.5583 78° East 379 436 16,700 2,820 Climbing Los Angeles Center
10:47AM 36.1625 -114.4261 79° East 392 451 19,200 2,580 Climbing Los Angeles Center
10:48AM 36.1900 -114.2556 79° East 421 484 22,000 2,220 Climbing Los Angeles Center
10:49AM 36.2094 -114.1003 81° East 452 520 23,800 1,740 Climbing Los Angeles Center
10:50AM 36.2292 -113.9381 81° East 472 543 25,700 1,620 Climbing Los Angeles Center
10:51AM 36.2494 -113.7714 81° East 488 562 27,600 1,800 Climbing Los Angeles Center
10:52AM 36.2731 -113.5664 82° East 500 575 29,800 1,860 Climbing Los Angeles Center
10:53AM 36.2933 -113.3911 82° East 511 588 31,500 1,440 Climbing Los Angeles Center
10:54AM 36.3172 -113.2131 80° East 521 600 32,800 1,440 Climbing Los Angeles Center
10:55AM 36.3508 -112.9975 79° East 532 612 34,500 1,440 Climbing Los Angeles Center
10:56AM 36.3842 -112.8192 77° East 536 617 35,800 1,140 Climbing Los Angeles Center
10:57AM 36.4292 -112.6478 72° East 528 608 36,900 1,080 Climbing Los Angeles Center
10:58AM 36.4733 -112.4753 72° East 528 608 38,100 900 Climbing Los Angeles Center
10:59AM 36.5136 -112.3056 74° East 520 598 39,000 360 Climbing Los Angeles Center
11:01AM 36.5639 -112.0992 73° East 521 600 39,000  Level Los Angeles Center
11:02AM 36.6156 -111.8936 73° East 522 601 39,000  Level Los Angeles Center
11:02AM 36.6503 -111.7572 72° East 519 597 39,000  Level Denver Center
11:03AM 36.6906 -111.5847 74° East 521 600 39,000  Level Denver Center
11:04AM 36.7328 -111.4147 73° East 518 596 39,000  Level Denver Center
11:05AM 36.7733 -111.2453 73° East 515 593 39,000  Level Denver Center
11:06AM 36.8133 -111.0753 74° East 514 592 39,000  Level Denver Center
11:07AM 36.8511 -110.9067 74° East 509 586 39,000  Level Denver Center
11:09AM 36.8994 -110.7036 73° East 511 588 39,000  Level Denver Center
11:10AM 36.9381 -110.5333 74° East 513 590 39,000  Level Denver Center
11:11AM 36.9769 -110.3611 74° East 515 593 39,000  Level Denver Center
11:12AM 37.0169 -110.1886 74° East 517 595 39,000  Level Denver Center
11:13AM 37.0594 -110.0003 74° East 512 589 39,000  Level Denver Center
11:14AM 37.0967 -109.8347 74° East 515 593 39,000  Level Denver Center
11:15AM 37.1397 -109.6400 74° East 517 595 39,000  Level Denver Center
11:16AM 37.1764 -109.4742 74° East 516 594 39,000  Level Denver Center
11:17AM 37.2186 -109.2811 75° East 516 594 39,000  Level Denver Center
11:18AM 37.2553 -109.1139 75° East 517 595 39,000  Level Denver Center
11:19AM 37.2978 -108.9183 75° East 518 596 39,000  Level Denver Center
11:20AM 37.3333 -108.7514 75° East 517 595 39,000  Level Denver Center
11:21AM 37.3744 -108.5558 75° East 517 595 39,000  Level Denver Center
11:22AM 37.4106 -108.3883 75° East 518 596 39,000  Level Denver Center
11:23AM 37.4447 -108.2206 76° East 516 594 39,000  Level Denver Center
11:24AM 37.4850 -108.0250 75° East 517 595 39,000  Level Denver Center
11:25AM 37.5206 -107.8564 75° East 519 597 39,000  Level Denver Center
11:26AM 37.5606 -107.6589 76° East 519 597 39,000  Level Denver Center
11:27AM 37.5944 -107.4867 76° East 526 605 39,000  Level Denver Center
11:28AM 37.6350 -107.2861 76° East 528 608 39,000  Level Denver Center
11:29AM 37.6686 -107.1133 76° East 530 610 39,000  Level Denver Center
11:30AM 37.7089 -106.9136 76° East 528 608 39,000  Level Denver Center
11:31AM 37.7417 -106.7422 76° East 525 604 39,000  Level Denver Center
11:32AM 37.7806 -106.5406 76° East 527 606 39,000  Level Denver Center
11:33AM 37.8167 -106.3528 76° East 531 611 39,000  Level Denver Center
11:34AM 37.8494 -106.1792 77° East 529 609 39,000  Level Denver Center
11:35AM 37.8881 -105.9742 77° East 535 616 39,000  Level Denver Center
11:36AM 37.9206 -105.7997 77° East 533 613 39,000  Level Denver Center
11:37AM 37.9528 -105.6242 77° East 533 613 39,000  Level Denver Center
11:39AM 37.9906 -105.4175 77° East 538 619 39,000  Level Denver Center
11:40AM 38.0233 -105.2383 77° East 542 624 39,000  Level Denver Center
11:41AM 38.0603 -105.0308 77° East 541 623 39,000  Level Denver Center
11:42AM 38.0914 -104.8514 78° East 541 623 39,000  Level Denver Center
11:43AM 38.1272 -104.6456 77° East 535 616 39,000  Level Denver Center
11:44AM 38.1597 -104.4661 77° East 539 620 39,000  Level Denver Center
11:45AM 38.1944 -104.2603 78° East 532 612 39,000  Level Denver Center
11:46AM 38.2292 -104.0556 78° East 528 608 39,000  Level Denver Center
11:47AM 38.2628 -103.8531 78° East 523 602 39,000  Level Denver Center
11:48AM 38.2922 -103.6772 78° East 528 608 39,000  Level Denver Center
11:49AM 38.3258 -103.4736 78° East 525 604 39,000  Level Denver Center
11:50AM 38.3556 -103.2892 78° East 528 608 39,000  Level Denver Center
11:51AM 38.3842 -103.1128 78° East 530 610 39,000  Level Denver Center
11:52AM 38.4161 -102.9072 79° East 529 609 39,000  Level Denver Center
11:53AM 38.4442 -102.7311 78° East 528 608 39,000  Level Denver Center
11:54AM 38.4761 -102.5231 79° East 533 613 39,000  Level Denver Center
11:55AM 38.5033 -102.3469 79° East 530 610 39,000  Level Denver Center
11:56AM 38.5342 -102.1392 79° East 532 612 39,000  Level Denver Center
11:57AM 38.5614 -101.9600 79° East 533 613 39,000  Level Denver Center
11:58AM 38.5886 -101.7819 79° East 530 610 39,000  Level Denver Center
11:59AM 38.6197 -101.5739 79° East 531 611 39,000  Level Denver Center
12:00PM 38.6447 -101.3972 80° East 528 608 39,000  Level Denver Center
12:01PM 38.6747 -101.1903 79° East 527 606 39,000  Level Denver Center
12:03PM 38.6992 -101.0131 80° East 526 605 39,000  Level Denver Center
12:04PM 38.7289 -100.8039 80° East 531 611 39,000  Level Denver Center
12:05PM 38.7539 -100.6267 80° East 529 609 39,000  Level Denver Center
12:06PM 38.7819 -100.4189 80° East 528 608 39,000  Level Denver Center
12:07PM 38.8064 -100.2392 80° East 532 612 39,000  Level Denver Center
12:08PM 38.8344 -100.0292 80° East 533 613 39,000  Level Denver Center
12:09PM 38.8578 -99.8483 81° East 536 617 39,000  Level Denver Center
12:10PM 38.8814 -99.6678 80° East 536 617 39,000  Level Denver Center
12:11PM 38.9083 -99.4578 81° East 533 613 39,000  Level Denver Center
12:12PM 38.9317 -99.2775 80° East 535 616 39,000  Level Denver Center
12:13PM 38.9575 -99.0664 81° East 536 617 39,000  Level Denver Center
12:14PM 38.9814 -98.8694 81° East 534 615 39,000  Level Denver Center
12:15PM 39.0047 -98.6800 81° East 537 618 39,000  Level Denver Center
12:16PM 39.0208 -98.5339 82° East 534 615 39,000  Level Kansas City Center
12:17PM 39.0436 -98.3453 81° East 532 612 39,000  Level Kansas City Center
12:18PM 39.0653 -98.1550 82° East 534 615 39,000  Level Kansas City Center
12:19PM 39.0869 -97.9664 82° East 533 613 39,000  Level Kansas City Center
12:20PM 39.1086 -97.7836 81° East 529 609 39,000  Level Kansas City Center
12:21PM 39.1314 -97.5742 82° East 527 606 39,000  Level Kansas City Center
12:22PM 39.1514 -97.3953 82° East 529 609 39,000  Level Kansas City Center
12:23PM 39.1742 -97.1872 82° East 526 605 39,000  Level Kansas City Center
12:24PM 39.1917 -97.0089 83° East 525 604 39,000  Level Kansas City Center
12:25PM 39.2136 -96.8000 82° East 528 608 39,000  Level Kansas City Center
12:26PM 39.2322 -96.6189 82° East 530 610 39,000  Level Kansas City Center
12:27PM 39.2506 -96.4364 83° East 536 617 39,000  Level Kansas City Center
12:28PM 39.2700 -96.2314 83° East 533 613 39,000  Level Kansas City Center
12:29PM 39.2892 -96.0408 83° East 539 620 39,000  Level Kansas City Center
12:30PM 39.3094 -95.8267 83° East 538 619 39,000  Level Kansas City Center
12:31PM 39.3272 -95.6417 83° East 539 620 39,000  Level Kansas City Center
12:32PM 39.3464 -95.4308 83° East 534 615 39,000  Level Kansas City Center
12:33PM 39.3625 -95.2403 84° East 535 616 39,000  Level Kansas City Center
12:34PM 39.3803 -95.0569 83° East 531 611 39,000  Level Kansas City Center
12:35PM 39.3953 -94.8739 84° East 531 611 39,000  Level Kansas City Center
12:36PM 39.4136 -94.6625 84° East 530 610 39,000  Level Kansas City Center
12:37PM 39.4286 -94.4806 84° East 531 611 39,000  Level Kansas City Center
12:38PM 39.4442 -94.2992 84° East 531 611 39,000  Level Kansas City Center
12:39PM 39.4611 -94.0875 84° East 530 610 39,000  Level Kansas City Center
12:40PM 39.4750 -93.9058 84° East 529 609 39,000  Level Kansas City Center
12:41PM 39.4903 -93.7192 84° East 529 609 39,000  Level Kansas City Center
12:42PM 39.5056 -93.5322 84° East 528 608 39,000  Level Kansas City Center
12:43PM 39.5222 -93.3100 84° East 524 603 39,000  Level Kansas City Center
12:44PM 39.5350 -93.1236 85° East 525 604 39,000  Level Kansas City Center
12:45PM 39.5478 -92.9361 85° East 528 608 39,000  Level Kansas City Center
12:46PM 39.5603 -92.7497 85° East 528 608 39,000  Level Kansas City Center
12:47PM 39.5722 -92.5625 85° East 528 608 39,000  Level Kansas City Center
12:49PM 39.5842 -92.3772 85° East 526 605 39,000  Level Kansas City Center
12:50PM 39.5989 -92.1558 85° East 522 601 39,000  Level Kansas City Center
12:51PM 39.6100 -91.9686 86° East 525 604 39,000  Level Kansas City Center
12:52PM 39.6206 -91.7839 86° East 523 602 39,000  Level Kansas City Center
12:53PM 39.6319 -91.5969 85° East 524 603 39,000  Level Kansas City Center
12:54PM 39.6425 -91.4092 86° East 525 604 39,000  Level Kansas City Center
12:55PM 39.6536 -91.2019 86° East 525 604 39,000  Level Kansas City Center
12:56PM 39.6642 -91.0111 86° East 527 606 39,000  Level Kansas City Center
12:57PM 39.6742 -90.8231 86° East 525 604 39,000  Level Kansas City Center
12:58PM 39.6831 -90.6339 86° East 525 604 39,000  Level Kansas City Center
12:59PM 39.6925 -90.4422 86° East 528 608 39,000  Level Kansas City Center
01:00PM 39.7019 -90.2533 86° East 526 605 39,000  Level Kansas City Center
01:01PM 39.7111 -90.0244 87° East 527 606 39,000  Level Kansas City Center
01:02PM 39.7192 -89.8367 87° East 524 603 39,000  Level Kansas City Center
01:03PM 39.7256 -89.6681 87° East 523 602 39,000  Level Kansas City Center
01:04PM 39.7336 -89.4831 87° East 520 598 39,000  Level Kansas City Center
01:05PM 39.7419 -89.2606 87° East 517 595 39,000  Level Kansas City Center
01:06PM 39.7497 -89.0767 87° East 515 593 39,000  Level Kansas City Center
01:07PM 39.7553 -88.8919 88° East 514 592 39,000  Level Kansas City Center
01:08PM 39.7619 -88.7056 87° East 517 595 39,000  Level Kansas City Center
01:09PM 39.7675 -88.5192 88° East 518 596 39,000  Level Kansas City Center
01:10PM 39.7756 -88.3306 87° East 521 600 39,000  Level Kansas City Center
01:11PM 39.7800 -88.1206 88° East 519 597 39,000  Level Indianapolis Center
01:12PM 39.7847 -87.9306 88° East 521 600 39,000  Level Indianapolis Center
01:13PM 39.7889 -87.7417 88° East 521 600 39,000  Level Indianapolis Center
01:14PM 39.7944 -87.5503 88° East 523 602 39,000  Level Indianapolis Center
01:15PM 39.7969 -87.3594 89° East 525 604 39,000  Level Indianapolis Center
01:16PM 39.8014 -87.1664 88° East 529 609 39,000  Level Indianapolis Center
01:17PM 39.8058 -86.9744 88° East 529 609 39,000  Level Indianapolis Center
01:18PM 39.8089 -86.7803 89° East 531 611 39,000  Level Indianapolis Center
01:19PM 39.8114 -86.5861 89° East 534 615 39,000  Level Indianapolis Center
01:20PM 39.8153 -86.3919 88° East 534 615 39,000  Level Indianapolis Center
01:21PM 39.8558 -86.1689 77° East 527 606 39,000  Level Indianapolis Center
01:22PM 39.8964 -85.9853 74° East 525 604 39,000  Level Indianapolis Center
01:23PM 39.9353 -85.7967 75° East 524 603 39,000  Level Indianapolis Center
01:24PM 39.9736 -85.6111 75° East 524 603 39,000  Level Indianapolis Center
01:25PM 40.0117 -85.4261 75° East 524 603 39,000  Level Indianapolis Center
01:26PM 40.0497 -85.2400 75° East 528 608 39,000  Level Indianapolis Center
01:27PM 40.0886 -85.0528 75° East 528 608 39,000  Level Indianapolis Center
01:29PM 40.1208 -84.8650 77° East 526 605 39,000  Level Indianapolis Center
01:30PM 40.1175 -84.6672 91° East 538 619 39,000 -60 Level Indianapolis Center
01:31PM 40.1169 -84.4706 90° East 538 619 38,900  Descending Indianapolis Center
01:32PM 40.1136 -84.2722 91° East 540 621 39,000  Climbing Indianapolis Center
01:33PM 40.1111 -84.0406 91° East 539 620 39,000  Level Indianapolis Center
01:34PM 40.1075 -83.8414 91° East 541 623 39,000  Level Indianapolis Center
01:35PM 40.1036 -83.6403 91° East 543 625 39,000  Level Indianapolis Center
01:36PM 40.0997 -83.4381 91° East 543 625 39,000  Level Indianapolis Center
01:37PM 40.0953 -83.2367 92° East 543 625 39,000 -120 Level Indianapolis Center
01:38PM 40.0906 -83.0389 92° East 538 619 38,800 -540 Descending Indianapolis Center
01:39PM 40.0786 -82.8417 94° East 537 618 37,900 -960 Descending Indianapolis Center
01:40PM 40.0653 -82.6456 95° East 536 617 36,900 -1,020 Descending Indianapolis Center
01:41PM 40.0519 -82.4489 95° East 538 619 35,900 -960 Descending Indianapolis Center
01:42PM 40.0381 -82.2497 95° East 545 627 35,000 -480 Descending Indianapolis Center
01:43PM 40.0239 -82.0500 95° East 547 629 35,000  Level Indianapolis Center
01:44PM 40.0092 -81.8492 95° East 550 633 35,000  Level Indianapolis Center
01:45PM 39.9942 -81.6500 96° East 548 631 35,000  Level Indianapolis Center
01:46PM 39.9786 -81.4522 96° East 546 628 35,000  Level Indianapolis Center
01:47PM 39.9603 -81.2214 96° East 548 631 35,000  Level Indianapolis Center
01:48PM 39.9475 -81.0406 95° East 544 626 35,000  Level Cleveland Center
01:49PM 39.9333 -80.8456 95° East 539 620 35,000  Level Cleveland Center
01:50PM 39.9169 -80.6533 96° East 539 620 35,000  Level Cleveland Center
01:51PM 39.9003 -80.4614 96° East 539 620 35,000  Level Cleveland Center
01:52PM 39.8853 -80.2719 96° East 539 620 35,000  Level Cleveland Center
01:53PM 39.8658 -80.0828 98° East 539 620 35,000 -540 Level Cleveland Center
01:55PM 39.7828 -79.6500 104° East 532 612 33,300 -1,380 Descending Washington Center
01:56PM 39.7431 -79.4667 106° East 537 618 30,500 -2,760 Descending Washington Center
01:57PM 39.7069 -79.2922 105° East 530 610 27,800 -2,460 Descending Washington Center
01:58PM 39.6703 -79.1231 106° East 505 581 25,600 -2,100 Descending Washington Center
01:59PM 39.6392 -78.9708 105° East 477 549 23,700 -1,740 Descending Washington Center
02:00PM 39.6056 -78.8372 108° East 441 507 22,200 -1,500 Descending Washington Center
02:01PM 39.5758 -78.6958 105° East 418 481 20,700 -1,500 Descending Washington Center
02:02PM 39.5458 -78.5600 106° East 403 464 19,300 -1,440 Descending Washington Center
02:03PM 39.5136 -78.4267 107° East 386 444 17,900 -1,260 Descending Washington Center
02:04PM 39.4872 -78.3019 105° East 376 433 16,800 -1,260 Descending Washington Center
02:05PM 39.4589 -78.1747 106° East 365 420 15,400 -1,140 Descending Washington Center
02:06PM 39.4322 -78.0528 106° East 365 420 14,600 -900 Descending Washington Center
02:07PM 39.4036 -77.9175 105° East 365 420 13,700 -900 Descending Washington Center
02:08PM 39.4122 -77.7917 85° East 354 407 12,800 -900 Descending Washington Center
02:09PM 39.4228 -77.6683 84° East 343 395 11,900 -900 Descending Washington Center
02:10PM 39.4311 -77.5475 85° East 343 395 11,000 -480 Descending Washington Center
02:11PM 39.4414 -77.4269 84° East 343 395 11,000  Level Washington Center
02:12PM 39.4514 -77.3064 84° East 343 395 11,000  Level Washington Center
02:13PM 39.4592 -77.1881 85° East 337 388 11,000  Level Washington Center
02:14PM 39.4500 -77.0833 96° East 339 390 11,000 -300 Level Potomac TRACON
02:15PM 39.4333 -76.9667 100° East 315 362 10,500 -960 Descending Potomac TRACON
02:16PM 39.4167 -76.8500 100° East 294 338 9,100 -1,440 Descending Potomac TRACON
02:17PM 39.4167 -76.7500 90° East 284 327 7,700 -1,440 Descending Potomac TRACON
02:18PM 39.4167 -76.6500 90° East 279 321 6,200 -1,320 Descending Potomac TRACON
02:19PM 39.3667 -76.5667 128° Southeast 281 323 5,000 -1,020 Descending Potomac TRACON
02:20PM 39.3167 -76.5000 134° Southeast 268 308 4,100 -540 Descending Potomac TRACON
02:21PM 39.2500 -76.4667 159° South 241 277 4,000 -60 Descending Potomac TRACON
02:22PM 39.2000 -76.4500 166° South 231 266 4,000  Level Potomac TRACON
02:23PM 39.1333 -76.4333 169° South 230 265 4,000 -240 Level Potomac TRACON
02:24PM 39.0667 -76.4333 180° South 234 269 3,600 -540 Descending Potomac TRACON
02:25PM 39.0167 -76.4667 207° Southwest 229 264 3,000 -300 Descending Potomac TRACON
02:26PM 39.0000 -76.5333 252° West 224 258 3,000 -300 Level Potomac TRACON
02:27PM 39.0500 -76.5667 333° Northwest 198 228 2,500 -540 Descending Potomac TRACON
02:28PM 39.0833 -76.6000 322° Northwest 172 198 2,000 -660 Descending Potomac TRACON
02:29PM 39.1167 -76.6333 322° Northwest 138 159 1,200 -840 Descending Potomac TRACON